• Join FlightAware (Why Join?)
  • Login
  • US Flag 
08:41PM EDT


 

Airport Tracker/Info


-or-


 

Live Flight TrackerFlight Track Log ✈ VH-KFX ✈ 27-Apr-2012 ✈ YPPD / PHE - YPKA / KTA

Flight Track Log - Related Links

Times and Time Zones

All times are in EDT time to prevent confusion due to time zone crossing. See the VH-KFX flight status page for this flight to view local times or setup timezone preferences in your user account.

Time Position Orientation Groundspeed Altitude Reporting Facility
EDT Latitude Longitude Course Direction KTS MPH feet Rate Location/Type
05:39AM -20.4088 118.5272 360° North 200  Level Aus ATC (Calculated)
05:39AM -20.4088 118.5272 259° West 200  Level Aus ATC (Calculated)
05:40AM -20.4193 118.4688 259° West 200  Level Aus ATC (Calculated)
05:41AM -20.4403 118.3521 259° West 200  Level Aus ATC (Calculated)
05:43AM -20.4611 118.2354 259° West 200  Level Aus ATC (Calculated)
05:44AM -20.4715 118.1771 259° West 200  Level Aus ATC (Calculated)
05:45AM -20.4922 118.0603 360° North 200  Level Aus ATC (Calculated)
05:46AM -20.4922 118.0603 259° West 200  Level Aus ATC (Calculated)
05:47AM -20.5026 118.0019 259° West 200  Level Aus ATC (Calculated)
05:49AM -20.5335 117.8267 360° North 200  Level Aus ATC (Calculated)
05:49AM -20.5335 117.8267 169° South 200  Level Aus ATC (Calculated)
05:49AM -20.5335 117.8267 260° West 200  Level Aus ATC (Calculated)
05:51AM -20.5523 117.7178 260° West  Level Estimated
05:52AM -20.5647 117.6459 259° West  Level Estimated
05:53AM -20.5815 117.5520 260° West  Level FlightAware Approximate
05:54AM -20.5937 117.4801 259° West  Level Estimated
05:55AM -20.6079 117.4001 260° West  Level FlightAware Approximate
05:56AM -20.6200 117.3282 259° West  Level Estimated
06:01AM -20.6853 116.9495 260° West 200  Level Aus ATC (Calculated)
06:03AM -20.7151 116.7739 260° West 200  Level Aus ATC (Calculated)